sensor_id;sensor_type;location;lat;lon;timestamp;P1;durP1;ratioP1;P2;durP2;ratioP2
3831;SDS011;12460;42.662;23.288;2023-02-21T00:04:14;13.10;;;7.83;;
3831;SDS011;12460;42.662;23.288;2023-02-21T00:19:37;11.57;;;7.90;;
3831;SDS011;12460;42.662;23.288;2023-02-21T00:35:02;8.87;;;6.80;;
3831;SDS011;12460;42.662;23.288;2023-02-21T00:50:27;9.30;;;6.37;;
3831;SDS011;12460;42.662;23.288;2023-02-21T01:05:51;7.00;;;5.80;;
3831;SDS011;12460;42.662;23.288;2023-02-21T01:21:16;7.00;;;5.27;;
3831;SDS011;12460;42.662;23.288;2023-02-21T01:36:40;5.10;;;4.63;;
3831;SDS011;12460;42.662;23.288;2023-02-21T01:52:04;6.30;;;5.67;;
3831;SDS011;12460;42.662;23.288;2023-02-21T02:07:28;6.60;;;4.90;;
3831;SDS011;12460;42.662;23.288;2023-02-21T02:38:17;7.63;;;4.73;;
3831;SDS011;12460;42.662;23.288;2023-02-21T02:53:37;5.57;;;4.20;;
3831;SDS011;12460;42.662;23.288;2023-02-21T03:08:52;5.03;;;4.53;;
3831;SDS011;12460;42.662;23.288;2023-02-21T03:24:07;7.00;;;4.70;;
3831;SDS011;12460;42.662;23.288;2023-02-21T03:39:13;4.87;;;3.73;;
3831;SDS011;12460;42.662;23.288;2023-02-21T03:54:18;7.07;;;4.60;;
3831;SDS011;12460;42.662;23.288;2023-02-21T04:09:25;3.87;;;3.47;;
3831;SDS011;12460;42.662;23.288;2023-02-21T04:24:30;4.10;;;3.70;;
3831;SDS011;12460;42.662;23.288;2023-02-21T04:39:36;3.60;;;3.30;;
3831;SDS011;12460;42.662;23.288;2023-02-21T04:54:40;5.17;;;3.80;;
3831;SDS011;12460;42.662;23.288;2023-02-21T05:09:45;5.40;;;4.30;;
3831;SDS011;12460;42.662;23.288;2023-02-21T05:24:50;6.10;;;4.63;;
3831;SDS011;12460;42.662;23.288;2023-02-21T05:39:55;5.00;;;4.47;;
3831;SDS011;12460;42.662;23.288;2023-02-21T05:54:59;9.13;;;5.80;;
3831;SDS011;12460;42.662;23.288;2023-02-21T06:10:04;9.27;;;6.90;;
3831;SDS011;12460;42.662;23.288;2023-02-21T06:25:09;7.73;;;6.37;;
3831;SDS011;12460;42.662;23.288;2023-02-21T06:40:12;7.30;;;5.90;;
3831;SDS011;12460;42.662;23.288;2023-02-21T06:55:22;14.30;;;7.40;;
3831;SDS011;12460;42.662;23.288;2023-02-21T07:10:28;11.00;;;7.10;;
3831;SDS011;12460;42.662;23.288;2023-02-21T07:25:33;15.13;;;6.90;;
3831;SDS011;12460;42.662;23.288;2023-02-21T07:40:38;13.13;;;8.30;;
3831;SDS011;12460;42.662;23.288;2023-02-21T07:55:42;10.63;;;7.47;;
3831;SDS011;12460;42.662;23.288;2023-02-21T08:10:47;11.67;;;8.30;;
3831;SDS011;12460;42.662;23.288;2023-02-21T08:25:51;11.60;;;8.97;;
3831;SDS011;12460;42.662;23.288;2023-02-21T08:40:56;13.50;;;8.20;;
3831;SDS011;12460;42.662;23.288;2023-02-21T08:56:01;11.97;;;8.53;;
3831;SDS011;12460;42.662;23.288;2023-02-21T09:11:06;12.37;;;8.70;;
3831;SDS011;12460;42.662;23.288;2023-02-21T09:26:11;10.27;;;8.13;;
3831;SDS011;12460;42.662;23.288;2023-02-21T09:41:15;10.50;;;7.63;;
3831;SDS011;12460;42.662;23.288;2023-02-21T10:11:53;10.50;;;7.10;;
3831;SDS011;12460;42.662;23.288;2023-02-21T10:27:16;6.87;;;5.70;;
3831;SDS011;12460;42.662;23.288;2023-02-21T10:42:29;4.67;;;2.37;;
3831;SDS011;12460;42.662;23.288;2023-02-21T10:57:53;2.53;;;2.33;;
3831;SDS011;12460;42.662;23.288;2023-02-21T11:13:02;2.00;;;1.90;;
3831;SDS011;12460;42.662;23.288;2023-02-21T11:59:09;2.63;;;2.43;;
3831;SDS011;12460;42.662;23.288;2023-02-21T12:29:37;2.70;;;2.50;;
3831;SDS011;12460;42.662;23.288;2023-02-21T13:00:13;2.93;;;2.73;;
3831;SDS011;12460;42.662;23.288;2023-02-21T13:15:26;2.70;;;2.50;;
3831;SDS011;12460;42.662;23.288;2023-02-21T13:45:44;3.10;;;2.40;;
3831;SDS011;12460;42.662;23.288;2023-02-21T14:00:50;3.03;;;2.23;;
3831;SDS011;12460;42.662;23.288;2023-02-21T14:16:21;4.10;;;2.93;;
3831;SDS011;12460;42.662;23.288;2023-02-21T14:47:20;3.27;;;2.97;;
3831;SDS011;12460;42.662;23.288;2023-02-21T15:02:49;3.53;;;3.20;;
3831;SDS011;12460;42.662;23.288;2023-02-21T15:33:35;2.90;;;2.70;;
3831;SDS011;12460;42.662;23.288;2023-02-21T15:48:41;3.00;;;2.70;;
3831;SDS011;12460;42.662;23.288;2023-02-21T16:03:46;3.90;;;3.50;;
3831;SDS011;12460;42.662;23.288;2023-02-21T16:18:54;3.93;;;3.43;;
3831;SDS011;12460;42.662;23.288;2023-02-21T16:34:00;8.43;;;5.10;;
3831;SDS011;12460;42.662;23.288;2023-02-21T16:49:05;7.80;;;6.67;;
3831;SDS011;12460;42.662;23.288;2023-02-21T17:04:21;7.80;;;6.97;;
3831;SDS011;12460;42.662;23.288;2023-02-21T17:19:27;9.50;;;7.50;;
3831;SDS011;12460;42.662;23.288;2023-02-21T17:34:33;11.80;;;9.10;;
3831;SDS011;12460;42.662;23.288;2023-02-21T17:49:38;14.70;;;8.83;;
3831;SDS011;12460;42.662;23.288;2023-02-21T18:04:43;15.43;;;10.03;;
3831;SDS011;12460;42.662;23.288;2023-02-21T18:19:48;13.70;;;10.47;;
3831;SDS011;12460;42.662;23.288;2023-02-21T18:34:53;13.83;;;9.70;;
3831;SDS011;12460;42.662;23.288;2023-02-21T18:49:59;8.43;;;7.00;;
3831;SDS011;12460;42.662;23.288;2023-02-21T19:05:04;12.30;;;7.70;;
3831;SDS011;12460;42.662;23.288;2023-02-21T19:20:09;12.30;;;7.90;;
3831;SDS011;12460;42.662;23.288;2023-02-21T19:35:14;8.63;;;6.47;;
3831;SDS011;12460;42.662;23.288;2023-02-21T19:50:19;9.67;;;7.20;;
3831;SDS011;12460;42.662;23.288;2023-02-21T20:05:24;10.00;;;7.23;;
3831;SDS011;12460;42.662;23.288;2023-02-21T20:20:29;12.03;;;7.50;;
3831;SDS011;12460;42.662;23.288;2023-02-21T20:35:34;9.10;;;7.40;;
3831;SDS011;12460;42.662;23.288;2023-02-21T20:50:38;8.83;;;7.93;;
3831;SDS011;12460;42.662;23.288;2023-02-21T21:05:44;10.70;;;8.20;;
3831;SDS011;12460;42.662;23.288;2023-02-21T21:20:53;10.17;;;7.90;;
3831;SDS011;12460;42.662;23.288;2023-02-21T21:35:57;9.17;;;7.30;;
3831;SDS011;12460;42.662;23.288;2023-02-21T21:51:02;7.90;;;6.60;;
3831;SDS011;12460;42.662;23.288;2023-02-21T22:06:07;7.00;;;6.27;;
3831;SDS011;12460;42.662;23.288;2023-02-21T22:21:13;7.90;;;6.10;;
3831;SDS011;12460;42.662;23.288;2023-02-21T22:36:18;6.80;;;5.37;;
3831;SDS011;12460;42.662;23.288;2023-02-21T22:51:26;5.20;;;4.70;;
3831;SDS011;12460;42.662;23.288;2023-02-21T23:06:31;5.27;;;4.73;;
3831;SDS011;12460;42.662;23.288;2023-02-21T23:21:45;4.13;;;3.53;;
3831;SDS011;12460;42.662;23.288;2023-02-21T23:36:55;19.33;;;12.90;;
3831;SDS011;12460;42.662;23.288;2023-02-21T23:52:01;25.67;;;16.30;;
